Time;durP1;ratioP1;P1;durP2;ratioP2;P2;SDS_P1;SDS_P2;PMS_P1;PMS_P2;Temp;Humidity;BMP_temperature;BMP_pressure;BME280_temperature;BME280_humidity;BME280_pressure;Samples;Min_cycle;Max_cycle;Signal;HPM_P1;HPM_P2
2023/04/06 00:00:26;;;;;;;2.50;2.10;;;-0.40;99.90;;;;;;4892129;29;20037;-61
2023/04/06 00:02:52;;;;;;;2.53;2.33;;;-0.40;99.90;;;;;;4890506;29;20139;-68
2023/04/06 00:05:20;;;;;;;2.95;2.50;;;-0.40;99.90;;;;;;4890695;29;20182;-63
2023/04/06 00:07:47;;;;;;;4.43;3.05;;;-0.40;99.90;;;;;;4892521;29;20065;-67
2023/04/06 00:10:15;;;;;;;4.88;3.53;;;-0.40;99.90;;;;;;4890882;29;20056;-63
2023/04/06 00:12:43;;;;;;;3.03;2.78;;;-0.40;99.90;;;;;;4891304;29;20056;-62
2023/04/06 00:15:10;;;;;;;2.88;2.45;;;-0.50;99.90;;;;;;4891844;29;20109;-63
2023/04/06 00:17:37;;;;;;;4.95;3.00;;;-0.50;99.90;;;;;;4888937;29;20483;-62
2023/04/06 00:20:05;;;;;;;4.55;3.28;;;-0.50;99.90;;;;;;4889094;29;20053;-63
2023/04/06 00:22:32;;;;;;;2.90;2.45;;;-0.60;99.90;;;;;;4888512;29;20829;-62
2023/04/06 00:24:59;;;;;;;3.17;2.58;;;-0.60;99.90;;;;;;4891443;29;20566;-63
2023/04/06 00:27:25;;;;;;;4.57;3.03;;;-0.60;99.90;;;;;;4889265;29;20112;-63
2023/04/06 00:29:53;;;;;;;3.72;3.42;;;-0.60;99.90;;;;;;4889807;29;20055;-62
2023/04/06 00:32:19;;;;;;;3.70;3.05;;;-0.60;99.90;;;;;;4883299;29;20056;-63
2023/04/06 00:34:47;;;;;;;3.30;3.00;;;-0.60;99.90;;;;;;4890588;29;20049;-66
2023/04/06 00:37:14;;;;;;;4.13;2.80;;;-0.60;99.90;;;;;;4887888;29;20055;-66
2023/04/06 00:39:41;;;;;;;4.38;3.33;;;-0.60;99.90;;;;;;4888211;29;20055;-63
2023/04/06 00:42:14;;;;;;;2.70;2.50;;;-0.60;99.90;;;;;;4889562;29;20048;-62
2023/04/06 00:44:41;;;;;;;4.00;2.58;;;-0.70;99.90;;;;;;4877701;29;20064;-64
2023/04/06 00:47:08;;;;;;;3.35;2.67;;;-0.70;99.90;;;;;;4874219;29;20048;-63
2023/04/06 00:49:35;;;;;;;4.15;3.03;;;-0.70;99.90;;;;;;4887612;29;20106;-64
2023/04/06 00:52:03;;;;;;;3.22;2.90;;;-0.70;99.90;;;;;;4887706;29;20487;-66
2023/04/06 00:54:30;;;;;;;3.42;3.13;;;-0.70;99.90;;;;;;4884558;29;20048;-63
2023/04/06 00:56:58;;;;;;;4.13;2.75;;;-0.80;99.90;;;;;;4877848;29;20419;-66
2023/04/06 00:59:28;;;;;;;3.85;2.60;;;-0.90;99.90;;;;;;4882233;29;20052;-64
2023/04/06 01:01:56;;;;;;;3.27;2.73;;;-0.90;99.90;;;;;;4886064;29;20100;-64
2023/04/06 01:04:32;;;;;;;3.13;2.83;;;-0.90;99.90;;;;;;4889417;29;20064;-63
2023/04/06 01:07:01;;;;;;;3.53;2.85;;;-0.90;99.90;;;;;;4871227;29;20602;-67
2023/04/06 01:09:37;;;;;;;3.63;3.13;;;-1.00;99.90;;;;;;4886242;29;20060;-64
2023/04/06 01:12:12;;;;;;;4.53;3.97;;;-1.00;99.90;;;;;;4891363;29;20076;-66
2023/04/06 01:14:39;;;;;;;4.32;2.72;;;-1.10;99.90;;;;;;4891326;29;20107;-62
2023/04/06 01:17:06;;;;;;;3.35;3.05;;;-1.10;99.90;;;;;;4882875;29;20139;-64
2023/04/06 01:19:33;;;;;;;4.00;3.63;;;-1.10;99.90;;;;;;4889223;29;20044;-66
2023/04/06 01:22:00;;;;;;;4.20;3.65;;;-1.20;99.90;;;;;;4867174;29;20052;-65
2023/04/06 01:24:30;;;;;;;3.75;2.78;;;-1.20;99.90;;;;;;4888657;29;20056;-66
2023/04/06 01:27:02;;;;;;;5.00;3.47;;;-1.20;99.90;;;;;;4888613;29;20064;-63
2023/04/06 01:29:42;;;;;;;5.70;2.80;;;-1.20;99.90;;;;;;4886485;29;20499;-64
2023/04/06 01:32:11;;;;;;;2.47;2.22;;;-1.20;99.90;;;;;;4886950;29;20413;-62
2023/04/06 01:34:46;;;;;;;4.25;3.08;;;-1.20;99.90;;;;;;4886990;29;20151;-62
2023/04/06 01:37:13;;;;;;;3.90;3.50;;;-1.30;99.90;;;;;;4885600;29;20079;-63
2023/04/06 01:39:41;;;;;;;5.85;3.50;;;-1.20;99.90;;;;;;4864257;29;20492;-66
2023/04/06 01:42:16;;;;;;;4.78;3.03;;;-1.20;99.90;;;;;;4883844;29;20049;-62
2023/04/06 01:44:46;;;;;;;5.57;3.97;;;-1.20;99.90;;;;;;4885002;29;20519;-67
2023/04/06 01:47:14;;;;;;;5.93;3.83;;;-1.20;99.90;;;;;;4886496;29;20099;-62
2023/04/06 01:49:41;;;;;;;4.82;3.80;;;-1.20;99.90;;;;;;4878061;29;20059;-64
2023/04/06 01:52:09;;;;;;;5.55;4.20;;;-1.20;99.90;;;;;;4891934;29;20418;-62
2023/04/06 01:54:39;;;;;;;5.78;4.00;;;-1.20;99.90;;;;;;4888196;29;20094;-61
2023/04/06 01:57:10;;;;;;;4.43;3.40;;;-1.20;99.90;;;;;;4890743;29;20048;-62
2023/04/06 01:59:42;;;;;;;3.97;3.45;;;-1.20;99.90;;;;;;4873229;29;20170;-64
2023/04/06 02:02:18;;;;;;;5.57;3.25;;;-1.20;99.90;;;;;;4876389;29;20052;-65
2023/04/06 02:04:54;;;;;;;4.53;3.85;;;-1.20;99.90;;;;;;4884195;29;20801;-66
2023/04/06 02:07:21;;;;;;;3.80;3.40;;;-1.30;99.90;;;;;;4872322;29;20861;-62
2023/04/06 02:09:48;;;;;;;4.47;3.30;;;-1.30;99.90;;;;;;4876703;29;20056;-62
2023/04/06 02:12:23;;;;;;;3.65;3.35;;;-1.40;99.90;;;;;;4881901;29;20135;-63
2023/04/06 02:14:51;;;;;;;4.35;3.70;;;-1.40;99.90;;;;;;4888401;29;20060;-63
2023/04/06 02:17:18;;;;;;;6.07;3.72;;;-1.50;99.90;;;;;;4887324;29;20067;-61
2023/04/06 02:19:45;;;;;;;4.43;3.47;;;-1.50;99.90;;;;;;4887679;29;20057;-65
2023/04/06 02:22:12;;;;;;;3.28;2.97;;;-1.50;99.90;;;;;;4888232;29;20052;-62
2023/04/06 02:24:40;;;;;;;6.20;3.63;;;-1.60;99.90;;;;;;4870379;29;20158;-62
2023/04/06 02:27:06;;;;;;;4.43;4.03;;;-1.60;99.90;;;;;;4886165;29;20090;-63
2023/04/06 02:29:33;;;;;;;5.10;3.70;;;-1.70;99.90;;;;;;4887415;29;20052;-61
2023/04/06 02:32:00;;;;;;;4.30;3.72;;;-1.70;99.90;;;;;;4883201;29;20111;-64
2023/04/06 02:34:30;;;;;;;3.92;3.55;;;-1.70;99.90;;;;;;4877774;29;20057;-61
2023/04/06 02:36:57;;;;;;;4.47;3.90;;;-1.80;99.90;;;;;;4886804;29;20054;-62
2023/04/06 02:39:24;;;;;;;4.53;4.13;;;-1.80;99.90;;;;;;4888959;29;20087;-64
2023/04/06 02:41:51;;;;;;;3.47;3.17;;;-1.80;99.90;;;;;;4884466;29;20056;-63
2023/04/06 02:44:21;;;;;;;5.43;3.97;;;-1.80;99.90;;;;;;4885791;29;20165;-62
2023/04/06 02:46:48;;;;;;;5.13;4.28;;;-1.90;99.90;;;;;;4885950;29;20049;-64
2023/04/06 02:49:15;;;;;;;4.63;4.18;;;-1.90;99.90;;;;;;4894385;29;20161;-62
2023/04/06 02:51:43;;;;;;;9.30;4.50;;;-2.00;99.90;;;;;;4886966;29;20048;-62
2023/04/06 02:54:24;;;;;;;5.78;4.30;;;-2.00;99.90;;;;;;4887328;29;20419;-65
2023/04/06 02:56:51;;;;;;;4.82;4.28;;;-2.10;99.90;;;;;;4878896;29;20051;-62
2023/04/06 02:59:19;;;;;;;4.90;4.30;;;-2.10;99.90;;;;;;4889198;29;20048;-64
2023/04/06 03:01:56;;;;;;;5.05;4.25;;;-2.10;99.90;;;;;;4890966;29;20052;-62
2023/04/06 03:04:25;;;;;;;6.43;4.80;;;-2.20;99.90;;;;;;4890920;29;20143;-63
2023/04/06 03:06:54;;;;;;;4.97;4.57;;;-2.20;99.90;;;;;;4885645;29;20431;-61
2023/04/06 03:09:32;;;;;;;6.50;4.40;;;-2.20;99.90;;;;;;4886653;29;20064;-63
2023/04/06 03:12:00;;;;;;;6.28;4.78;;;-2.20;99.90;;;;;;4891382;29;20183;-65
2023/04/06 03:14:28;;;;;;;6.32;4.57;;;-2.20;99.90;;;;;;4888369;29;20520;-62
2023/04/06 03:16:55;;;;;;;4.30;3.90;;;-2.20;99.90;;;;;;4872370;29;20046;-64
2023/04/06 03:19:24;;;;;;;7.20;4.93;;;-2.20;99.90;;;;;;4893563;29;20060;-64
2023/04/06 03:21:52;;;;;;;5.47;4.63;;;-2.20;99.90;;;;;;4873332;29;20396;-65
2023/04/06 03:24:20;;;;;;;5.13;3.83;;;-2.20;99.90;;;;;;4885271;29;20065;-62
2023/04/06 03:26:47;;;;;;;5.35;4.85;;;-2.30;99.90;;;;;;4891724;29;20084;-61
2023/04/06 03:29:14;;;;;;;5.47;4.15;;;-2.20;99.90;;;;;;4875786;29;20415;-61
2023/04/06 03:31:41;;;;;;;4.65;3.80;;;-2.30;99.90;;;;;;4882397;29;20056;-64
2023/04/06 03:34:40;;;;;;;5.00;4.50;;;-2.30;99.90;;;;;;4879705;29;20463;-61
2023/04/06 03:37:07;;;;;;;6.13;4.57;;;-2.30;99.90;;;;;;4891057;29;20063;-62
2023/04/06 03:39:42;;;;;;;5.43;4.07;;;-2.30;99.90;;;;;;4887040;29;20052;-62
2023/04/06 03:42:13;;;;;;;4.78;3.88;;;-2.30;99.90;;;;;;4890722;29;20060;-61
2023/04/06 03:44:48;;;;;;;4.70;4.30;;;-2.40;99.90;;;;;;4898235;29;20672;-61
2023/04/06 03:47:15;;;;;;;5.18;4.68;;;-2.40;99.90;;;;;;4883831;29;20100;-63
2023/04/06 03:49:42;;;;;;;4.93;4.50;;;-2.30;99.90;;;;;;4872484;29;20139;-61
2023/04/06 03:52:11;;;;;;;5.30;4.15;;;-2.30;99.90;;;;;;4883965;29;20218;-63
2023/04/06 03:54:38;;;;;;;4.70;4.30;;;-2.30;99.90;;;;;;4875699;29;20052;-61
2023/04/06 03:57:05;;;;;;;5.70;4.15;;;-2.20;99.90;;;;;;4887955;29;20068;-64
2023/04/06 03:59:32;;;;;;;5.00;4.50;;;-2.30;99.90;;;;;;4891728;29;20052;-65
2023/04/06 04:01:59;;;;;;;7.68;4.70;;;-2.20;99.90;;;;;;4888741;29;20054;-62
2023/04/06 04:04:26;;;;;;;5.55;4.68;;;-2.20;99.90;;;;;;4889134;29;20080;-61
2023/04/06 04:06:52;;;;;;;5.65;4.20;;;-2.20;99.90;;;;;;4891769;29;20091;-66
2023/04/06 04:09:19;;;;;;;6.47;5.38;;;-2.10;99.90;;;;;;4887749;29;20068;-62
2023/04/06 04:11:46;;;;;;;5.60;5.03;;;-2.10;99.90;;;;;;4890494;29;20045;-63
2023/04/06 04:14:13;;;;;;;5.82;4.80;;;-2.10;99.90;;;;;;4874479;29;20131;-64
2023/04/06 04:16:41;;;;;;;6.05;5.45;;;-2.10;99.90;;;;;;4879450;29;20143;-62
2023/04/06 04:19:08;;;;;;;4.85;4.40;;;-2.00;99.90;;;;;;4890036;29;20083;-63
2023/04/06 04:21:46;;;;;;;5.18;4.63;;;-2.00;99.90;;;;;;4889107;29;20052;-61
2023/04/06 04:24:17;;;;;;;5.57;5.00;;;-2.00;99.90;;;;;;4888603;29;20049;-61
2023/04/06 04:26:44;;;;;;;7.10;4.88;;;-2.00;99.90;;;;;;4878154;29;20571;-65
2023/04/06 04:29:11;;;;;;;6.10;4.57;;;-2.00;99.90;;;;;;4873427;29;20088;-64
2023/04/06 04:31:38;;;;;;;5.82;5.22;;;-2.00;99.90;;;;;;4885121;29;20049;-62
2023/04/06 04:34:12;;;;;;;5.22;3.92;;;-2.00;99.90;;;;;;4893916;29;20052;-62
2023/04/06 04:36:41;;;;;;;6.78;4.85;;;-2.00;99.90;;;;;;4887171;29;20064;-61
2023/04/06 04:39:12;;;;;;;6.03;5.45;;;-2.00;99.90;;;;;;4877508;29;20139;-65
2023/04/06 04:41:44;;;;;;;6.90;5.55;;;-2.00;99.90;;;;;;4884529;29;20525;-63
2023/04/06 04:44:11;;;;;;;7.57;4.68;;;-2.00;99.90;;;;;;4888429;29;20060;-61
2023/04/06 04:46:39;;;;;;;6.72;5.80;;;-2.00;99.90;;;;;;4875206;29;20080;-67
2023/04/06 04:49:06;;;;;;;8.10;5.70;;;-2.00;99.90;;;;;;4877272;29;20410;-61
2023/04/06 04:51:34;;;;;;;6.18;5.35;;;-2.00;99.90;;;;;;4870606;29;20578;-65
2023/04/06 04:54:10;;;;;;;6.40;5.60;;;-2.00;99.90;;;;;;4874567;29;20049;-64
2023/04/06 04:56:39;;;;;;;7.47;6.78;;;-2.00;99.90;;;;;;4884698;29;20053;-62
2023/04/06 04:59:30;;;;;;;7.85;6.63;;;-2.00;99.90;;;;;;4888198;29;20826;-64
2023/04/06 05:02:08;;;;;;;7.45;6.75;;;-2.00;99.90;;;;;;4884607;29;20156;-63
2023/04/06 05:04:43;;;;;;;13.45;10.00;;;-2.00;99.90;;;;;;4875946;29;20065;-64
2023/04/06 05:07:18;;;;;;;10.60;8.68;;;-2.00;99.90;;;;;;4886778;29;20056;-62
2023/04/06 05:09:45;;;;;;;9.80;8.63;;;-2.00;99.90;;;;;;4881049;29;20072;-61
2023/04/06 05:12:12;;;;;;;11.40;8.93;;;-1.90;99.90;;;;;;4890269;29;20124;-62
2023/04/06 05:14:49;;;;;;;11.45;7.45;;;-1.90;99.90;;;;;;4880813;29;20087;-63
2023/04/06 05:17:18;;;;;;;10.15;7.65;;;-1.90;99.90;;;;;;4861590;29;20060;-63
2023/04/06 05:19:46;;;;;;;11.07;8.65;;;-2.00;99.90;;;;;;4888093;29;20067;-61
2023/04/06 05:22:17;;;;;;;12.27;10.98;;;-2.00;99.90;;;;;;4872104;29;20083;-68
2023/04/06 05:24:49;;;;;;;13.93;11.65;;;-1.90;99.90;;;;;;4891523;29;20144;-66
2023/04/06 05:27:16;;;;;;;16.67;14.98;;;-1.90;99.90;;;;;;4887763;29;20646;-64
2023/04/06 05:29:43;;;;;;;13.65;12.27;;;-1.80;99.90;;;;;;4873119;29;20048;-64
2023/04/06 05:32:10;;;;;;;15.40;12.73;;;-1.80;99.90;;;;;;4874695;29;20056;-67
2023/04/06 05:34:38;;;;;;;12.43;10.32;;;-1.70;99.90;;;;;;4888254;29;20071;-65
2023/04/06 05:37:06;;;;;;;10.48;9.48;;;-1.60;99.90;;;;;;4881675;29;20059;-63
2023/04/06 05:39:34;;;;;;;10.70;8.73;;;-1.50;99.90;;;;;;4870716;29;20080;-64
2023/04/06 05:42:05;;;;;;;9.65;8.18;;;-1.40;99.90;;;;;;4872224;29;20056;-61
2023/04/06 05:44:55;;;;;;;9.65;8.38;;;-1.30;99.90;;;;;;4884372;29;20410;-62
2023/04/06 05:47:22;;;;;;;9.88;8.35;;;-1.20;99.90;;;;;;4888227;29;20075;-62
2023/04/06 05:49:57;;;;;;;11.23;8.82;;;-1.10;99.90;;;;;;4886237;29;20047;-64
2023/04/06 05:52:33;;;;;;;12.23;7.88;;;-1.00;99.90;;;;;;4868444;29;20057;-63
2023/04/06 05:55:00;;;;;;;11.13;7.75;;;-0.90;99.90;;;;;;4885244;29;20053;-68
2023/04/06 05:57:28;;;;;;;9.55;7.45;;;-0.80;99.90;;;;;;4886715;29;20052;-61
2023/04/06 05:59:55;;;;;;;8.43;6.30;;;-0.70;99.90;;;;;;4886893;29;20060;-62
2023/04/06 06:02:25;;;;;;;6.68;5.53;;;-0.60;99.90;;;;;;4882361;29;20067;-67
2023/04/06 06:04:53;;;;;;;13.20;7.25;;;-0.50;99.90;;;;;;4889305;29;20062;-62
2023/04/06 06:07:20;;;;;;;9.07;6.68;;;-0.50;99.90;;;;;;4889097;29;20064;-63
2023/04/06 06:09:57;;;;;;;8.68;7.00;;;-0.40;99.90;;;;;;4886749;29;21794;-63
2023/04/06 06:12:30;;;;;;;8.65;7.75;;;-0.40;99.90;;;;;;4875523;29;20464;-63
2023/04/06 06:14:58;;;;;;;9.85;7.60;;;-0.30;99.90;;;;;;4879636;29;20101;-66
2023/04/06 06:17:26;;;;;;;14.50;8.15;;;-0.30;99.90;;;;;;4888297;29;20062;-64
2023/04/06 06:19:55;;;;;;;18.42;9.27;;;-0.30;99.90;;;;;;4883428;29;20112;-69
2023/04/06 06:22:22;;;;;;;13.40;8.00;;;-0.30;99.90;;;;;;4887106;29;20053;-64
2023/04/06 06:24:50;;;;;;;14.30;7.95;;;-0.20;99.90;;;;;;4883872;29;20968;-64
2023/04/06 06:27:19;;;;;;;21.33;9.47;;;-0.10;99.90;;;;;;4886620;29;20110;-62
2023/04/06 06:29:46;;;;;;;7.43;6.47;;;-0.10;99.90;;;;;;4884201;29;20132;-64
2023/04/06 06:32:14;;;;;;;9.50;5.97;;;0.00;99.90;;;;;;4889442;29;20391;-62
2023/04/06 06:34:42;;;;;;;8.48;6.38;;;0.10;99.90;;;;;;4886363;29;20396;-62
2023/04/06 06:37:09;;;;;;;8.30;5.68;;;0.10;99.90;;;;;;4886224;29;20050;-62
2023/04/06 06:39:37;;;;;;;9.55;6.07;;;0.20;99.90;;;;;;4870054;29;20084;-62
2023/04/06 06:42:05;;;;;;;8.95;5.40;;;0.20;99.90;;;;;;4881043;29;20048;-68
2023/04/06 06:45:01;;;;;;;4.88;4.38;;;0.30;99.90;;;;;;4884746;29;20491;-63
2023/04/06 06:47:28;;;;;;;6.70;4.30;;;0.30;99.90;;;;;;4888678;29;20064;-62
2023/04/06 06:49:55;;;;;;;5.03;4.22;;;0.40;99.90;;;;;;4885988;29;20060;-65
2023/04/06 06:52:23;;;;;;;3.35;3.05;;;0.40;99.90;;;;;;4885694;29;20570;-62
2023/04/06 06:54:50;;;;;;;5.22;3.88;;;0.60;99.90;;;;;;4887612;29;20056;-64
2023/04/06 06:57:18;;;;;;;7.13;4.03;;;0.70;99.90;;;;;;4886571;29;20060;-63
2023/04/06 06:59:47;;;;;;;4.50;4.07;;;0.80;99.90;;;;;;4863771;29;20044;-61
2023/04/06 07:02:14;;;;;;;4.22;3.85;;;0.80;99.90;;;;;;4886196;29;20077;-67
2023/04/06 07:04:41;;;;;;;4.43;2.95;;;0.90;99.90;;;;;;4875385;29;20052;-66
2023/04/06 07:07:08;;;;;;;5.90;3.42;;;1.00;99.90;;;;;;4887628;29;20080;-64
2023/04/06 07:09:35;;;;;;;2.90;1.83;;;1.10;99.90;;;;;;4869677;29;20048;-62
2023/04/06 07:12:02;;;;;;;2.90;2.15;;;1.20;99.90;;;;;;4886816;29;20145;-62
2023/04/06 07:14:29;;;;;;;2.22;2.00;;;1.20;99.90;;;;;;4886794;29;20053;-64
2023/04/06 07:16:56;;;;;;;3.92;1.40;;;1.30;99.90;;;;;;4884621;29;20052;-62
2023/04/06 07:19:23;;;;;;;2.40;1.30;;;1.40;99.90;;;;;;4887424;29;20049;-62
2023/04/06 07:21:50;;;;;;;1.92;1.58;;;1.50;99.90;;;;;;4884508;29;20214;-63
2023/04/06 07:24:17;;;;;;;2.38;1.38;;;1.60;99.90;;;;;;4888113;29;20048;-62
2023/04/06 07:26:44;;;;;;;1.60;1.40;;;1.70;99.90;;;;;;4887143;29;20088;-62
2023/04/06 07:29:11;;;;;;;1.73;1.20;;;1.70;99.90;;;;;;4876154;29;20068;-62
2023/04/06 07:31:38;;;;;;;2.17;1.98;;;1.70;99.90;;;;;;4883180;29;20430;-63
2023/04/06 07:34:05;;;;;;;2.83;1.80;;;1.80;99.90;;;;;;4887379;29;20048;-63
2023/04/06 07:36:33;;;;;;;3.42;2.40;;;1.80;99.90;;;;;;4885814;29;20403;-59
2023/04/06 07:38:59;;;;;;;4.47;2.22;;;1.90;99.90;;;;;;4889584;29;20044;-63
2023/04/06 07:41:26;;;;;;;2.40;1.95;;;2.00;99.90;;;;;;4878903;29;20084;-61
2023/04/06 07:43:53;;;;;;;2.47;1.90;;;2.00;99.90;;;;;;4875873;29;20463;-61
2023/04/06 07:46:20;;;;;;;3.63;1.80;;;2.10;99.90;;;;;;4887360;29;21416;-62
2023/04/06 07:48:49;;;;;;;2.05;1.27;;;2.20;99.90;;;;;;4878504;29;20055;-62
2023/04/06 07:51:17;;;;;;;4.90;1.20;;;2.30;99.90;;;;;;4889821;29;20136;-60
2023/04/06 07:53:45;;;;;;;5.22;1.45;;;2.40;99.90;;;;;;4877086;29;20126;-64
2023/04/06 07:56:12;;;;;;;4.20;1.50;;;2.40;99.90;;;;;;4889100;29;20354;-61
2023/04/06 07:58:39;;;;;;;1.38;1.20;;;2.40;99.90;;;;;;4892662;29;20743;-63
2023/04/06 08:01:05;;;;;;;1.67;1.58;;;2.50;99.90;;;;;;4891596;29;20057;-69
2023/04/06 08:03:36;;;;;;;3.97;1.55;;;2.60;99.90;;;;;;4889897;29;20085;-61
2023/04/06 08:06:04;;;;;;;2.10;1.63;;;2.60;99.90;;;;;;4891844;29;20049;-64
2023/04/06 08:08:31;;;;;;;2.78;1.33;;;2.60;99.90;;;;;;4893411;29;20484;-62
2023/04/06 08:10:58;;;;;;;6.78;2.08;;;2.60;99.90;;;;;;4889640;29;20496;-61
2023/04/06 08:13:28;;;;;;;9.27;1.92;;;2.70;99.90;;;;;;4891579;29;20076;-62
2023/04/06 08:15:55;;;;;;;2.85;1.30;;;2.90;99.90;;;;;;4889224;29;20143;-61
2023/04/06 08:18:22;;;;;;;2.95;1.40;;;3.10;99.90;;;;;;4888432;29;20089;-62
2023/04/06 08:20:49;;;;;;;1.77;1.42;;;3.40;99.90;;;;;;4891181;29;20441;-65
2023/04/06 08:23:16;;;;;;;2.60;1.40;;;3.60;99.90;;;;;;4889601;29;20048;-63
2023/04/06 08:25:43;;;;;;;7.13;1.58;;;3.70;99.90;;;;;;4888643;29;20048;-65
2023/04/06 08:28:10;;;;;;;2.78;1.48;;;3.90;99.90;;;;;;4890634;29;20136;-62
2023/04/06 08:30:40;;;;;;;3.38;1.58;;;3.90;99.90;;;;;;4891350;29;20492;-63
2023/04/06 08:33:07;;;;;;;3.95;1.85;;;3.90;99.90;;;;;;4888780;29;20453;-61
2023/04/06 08:35:33;;;;;;;1.42;1.25;;;3.80;99.90;;;;;;4888262;29;20052;-63
2023/04/06 08:38:00;;;;;;;2.80;1.20;;;3.70;99.90;;;;;;4889994;29;20076;-62
2023/04/06 08:40:27;;;;;;;2.33;2.05;;;3.70;99.90;;;;;;4886781;29;20049;-60
2023/04/06 08:42:56;;;;;;;2.85;1.42;;;3.80;99.90;;;;;;4887356;29;20064;-62
2023/04/06 08:45:23;;;;;;;9.55;2.58;;;3.90;99.90;;;;;;4888986;29;20400;-61
2023/04/06 08:47:52;;;;;;;10.38;3.15;;;4.10;99.90;;;;;;4872668;29;20056;-61
2023/04/06 08:50:19;;;;;;;3.95;1.30;;;4.20;99.90;;;;;;4883053;29;20057;-63
2023/04/06 08:52:48;;;;;;;1.73;1.10;;;4.60;99.90;;;;;;4891359;29;20064;-63
2023/04/06 08:55:16;;;;;;;4.20;1.30;;;4.80;99.90;;;;;;4889561;29;20140;-62
2023/04/06 08:57:43;;;;;;;1.63;1.52;;;5.00;99.90;;;;;;4888830;29;20087;-62
2023/04/06 09:00:11;;;;;;;3.28;1.63;;;5.10;99.90;;;;;;4890585;29;20050;-65
2023/04/06 09:02:41;;;;;;;3.67;1.42;;;5.20;99.90;;;;;;4888638;29;20168;-61
2023/04/06 09:05:10;;;;;;;1.75;1.38;;;5.40;99.90;;;;;;4890684;29;20172;-60
2023/04/06 09:07:37;;;;;;;4.57;2.03;;;5.50;99.90;;;;;;4885729;29;20056;-65
2023/04/06 09:10:08;;;;;;;3.38;1.48;;;5.60;99.90;;;;;;4889922;29;20398;-63
2023/04/06 09:12:35;;;;;;;2.33;1.27;;;5.80;99.90;;;;;;4890855;29;20052;-63
2023/04/06 09:15:03;;;;;;;2.40;1.30;;;5.80;99.90;;;;;;4889458;29;20052;-62
2023/04/06 09:17:32;;;;;;;6.78;1.63;;;5.80;99.90;;;;;;4889768;29;20586;-64
2023/04/06 09:20:00;;;;;;;3.45;1.85;;;5.90;99.90;;;;;;4887333;29;20064;-63
2023/04/06 09:22:36;;;;;;;2.75;1.58;;;6.00;99.90;;;;;;4887616;29;20605;-64
2023/04/06 09:25:03;;;;;;;3.25;1.63;;;6.00;99.90;;;;;;4889264;29;20056;-63
2023/04/06 09:27:35;;;;;;;4.70;2.25;;;6.10;99.90;;;;;;4890251;29;20052;-64
2023/04/06 09:30:13;;;;;;;6.82;2.13;;;6.20;99.90;;;;;;4887424;29;20048;-63
2023/04/06 09:32:45;;;;;;;4.80;1.40;;;5.90;99.90;;;;;;4890916;29;20086;-63
2023/04/06 09:35:12;;;;;;;5.32;1.58;;;5.60;99.90;;;;;;4888611;29;20051;-62
2023/04/06 09:37:39;;;;;;;3.22;1.90;;;5.50;99.90;;;;;;4886006;29;20060;-61
2023/04/06 09:40:08;;;;;;;7.20;2.33;;;5.40;99.90;;;;;;4888348;29;20050;-65
2023/04/06 09:42:35;;;;;;;1.83;1.67;;;5.40;99.90;;;;;;4894173;29;20079;-62
2023/04/06 09:45:03;;;;;;;4.55;1.70;;;5.40;99.90;;;;;;4890379;29;20104;-61
2023/04/06 09:47:31;;;;;;;24.92;3.67;;;5.20;99.90;;;;;;4888793;29;20073;-63
2023/04/06 09:49:59;;;;;;;5.22;2.38;;;5.20;99.90;;;;;;4887227;29;20683;-64
2023/04/06 09:52:32;;;;;;;4.68;2.25;;;5.40;99.90;;;;;;4889963;29;20479;-64
2023/04/06 09:55:03;;;;;;;2.83;1.60;;;5.50;99.90;;;;;;4889347;29;20040;-62
2023/04/06 09:57:40;;;;;;;5.88;2.33;;;5.50;99.90;;;;;;4888443;29;20057;-66
2023/04/06 10:00:11;;;;;;;3.63;1.45;;;5.50;99.90;;;;;;4885821;29;20045;-63
2023/04/06 10:02:50;;;;;;;5.30;2.92;;;5.70;99.90;;;;;;4888539;29;20329;-62
2023/04/06 10:05:37;;;;;;;4.03;1.98;;;6.00;99.90;;;;;;4887888;29;20175;-63
2023/04/06 10:08:08;;;;;;;3.95;1.60;;;6.40;99.90;;;;;;4873193;29;20052;-65
2023/04/06 10:10:36;;;;;;;2.88;2.58;;;6.60;99.90;;;;;;4886073;29;20831;-63
2023/04/06 10:13:04;;;;;;;2.35;1.73;;;6.70;99.90;;;;;;4888046;29;20048;-67
2023/04/06 10:15:31;;;;;;;3.33;1.77;;;6.60;99.90;;;;;;4885088;29;20048;-62
2023/04/06 10:17:59;;;;;;;3.55;1.30;;;6.50;99.90;;;;;;4890286;29;20156;-62
2023/04/06 10:20:29;;;;;;;1.65;1.30;;;6.50;99.90;;;;;;4889666;29;20048;-61
2023/04/06 10:23:08;;;;;;;1.85;1.48;;;6.50;99.90;;;;;;4888058;29;20040;-63
2023/04/06 10:25:36;;;;;;;4.82;1.58;;;6.50;99.90;;;;;;4885690;29;20179;-62
2023/04/06 10:28:08;;;;;;;5.57;1.40;;;6.40;99.90;;;;;;4888610;29;20054;-65
2023/04/06 10:30:44;;;;;;;5.88;2.03;;;6.40;99.90;;;;;;4888843;29;20143;-62
2023/04/06 10:33:28;;;;;;;5.20;1.77;;;6.40;99.90;;;;;;4886327;29;20601;-62
2023/04/06 10:35:56;;;;;;;3.08;1.40;;;6.30;99.90;;;;;;4883138;29;20080;-65
2023/04/06 10:38:37;;;;;;;3.78;1.63;;;6.20;99.90;;;;;;4888955;29;20443;-65
2023/04/06 10:41:09;;;;;;;3.05;1.40;;;6.20;99.90;;;;;;4883843;29;20057;-62
2023/04/06 10:43:39;;;;;;;6.63;2.05;;;6.10;99.90;;;;;;4886885;29;20052;-64
2023/04/06 10:46:08;;;;;;;1.67;1.45;;;6.10;99.90;;;;;;4887592;29;20044;-63
2023/04/06 10:48:43;;;;;;;3.38;1.73;;;6.10;99.90;;;;;;4884665;29;20116;-66
2023/04/06 10:51:14;;;;;;;2.15;1.00;;;6.10;99.90;;;;;;4888671;29;20163;-62
2023/04/06 10:53:43;;;;;;;1.73;1.20;;;6.00;99.90;;;;;;4888980;29;20053;-63
2023/04/06 10:56:11;;;;;;;3.45;1.65;;;5.90;99.90;;;;;;4885610;29;20048;-65
2023/04/06 10:58:45;;;;;;;5.00;1.88;;;5.70;99.90;;;;;;4887504;29;20542;-63
2023/04/06 11:01:12;;;;;;;2.00;0.98;;;5.20;99.90;;;;;;4887387;29;20056;-62
2023/04/06 11:03:46;;;;;;;3.85;1.40;;;5.10;99.90;;;;;;4886735;29;20783;-63
2023/04/06 11:06:25;;;;;;;2.75;1.35;;;4.90;99.90;;;;;;4886272;29;20056;-65
2023/04/06 11:08:53;;;;;;;5.68;1.23;;;4.90;99.90;;;;;;4889746;29;20136;-63
2023/04/06 11:11:21;;;;;;;4.50;1.50;;;4.70;99.90;;;;;;4891366;29;20167;-62
2023/04/06 11:13:58;;;;;;;1.60;1.20;;;4.70;99.90;;;;;;4887526;29;20079;-63
2023/04/06 11:16:32;;;;;;;1.45;1.35;;;4.70;99.90;;;;;;4889728;29;20815;-63
2023/04/06 11:19:02;;;;;;;7.88;1.30;;;4.60;99.90;;;;;;4889999;29;20048;-62
2023/04/06 11:21:46;;;;;;;6.88;1.45;;;4.50;99.90;;;;;;4889877;29;20143;-63
2023/04/06 11:24:22;;;;;;;7.60;1.80;;;4.40;99.90;;;;;;4888773;29;20048;-64
2023/04/06 11:27:00;;;;;;;6.75;2.20;;;4.40;99.90;;;;;;4891007;29;20068;-62
2023/04/06 11:29:30;;;;;;;11.90;1.85;;;4.50;99.90;;;;;;4889447;29;20083;-62
2023/04/06 11:32:05;;;;;;;3.87;1.13;;;4.50;99.90;;;;;;4888919;29;20048;-63
2023/04/06 11:34:36;;;;;;;2.55;1.60;;;4.60;99.90;;;;;;4890847;29;20130;-62
2023/04/06 11:37:08;;;;;;;2.50;1.23;;;4.70;99.90;;;;;;4890493;29;20135;-63
2023/04/06 11:39:56;;;;;;;1.95;1.02;;;4.80;99.90;;;;;;4889996;29;20061;-64
2023/04/06 11:42:29;;;;;;;6.05;2.28;;;4.90;99.90;;;;;;4893885;29;20159;-63
2023/04/06 11:44:58;;;;;;;6.85;1.55;;;4.90;99.90;;;;;;4889046;29;20530;-64
2023/04/06 11:47:30;;;;;;;3.30;1.50;;;5.00;99.90;;;;;;4889861;29;20488;-64
2023/04/06 11:50:09;;;;;;;2.80;1.15;;;4.80;99.90;;;;;;4890051;29;20052;-64
2023/04/06 11:52:38;;;;;;;6.78;1.52;;;4.70;99.90;;;;;;4890469;29;20135;-66
2023/04/06 11:55:17;;;;;;;6.60;1.55;;;4.70;99.90;;;;;;4890810;29;20067;-63
2023/04/06 11:57:45;;;;;;;2.13;1.42;;;4.50;99.90;;;;;;4887560;29;20052;-65
2023/04/06 12:00:12;;;;;;;2.38;1.75;;;4.60;99.90;;;;;;4875221;29;20435;-62
2023/04/06 12:02:39;;;;;;;4.80;1.55;;;4.80;99.90;;;;;;4888963;29;20167;-61
2023/04/06 12:05:08;;;;;;;7.20;1.75;;;4.70;99.90;;;;;;4893749;29;20059;-59
2023/04/06 12:07:35;;;;;;;9.90;1.92;;;4.80;99.90;;;;;;4888929;29;20421;-61
2023/04/06 12:10:02;;;;;;;2.05;0.93;;;4.90;99.90;;;;;;4890899;29;20049;-61
2023/04/06 12:12:29;;;;;;;2.92;1.20;;;4.90;99.90;;;;;;4890672;29;20418;-63
2023/04/06 12:14:57;;;;;;;6.53;1.70;;;4.90;99.90;;;;;;4893877;29;20044;-60
2023/04/06 12:17:24;;;;;;;1.75;1.13;;;4.90;99.90;;;;;;4888822;29;20056;-61
2023/04/06 12:19:51;;;;;;;3.35;1.42;;;5.00;99.90;;;;;;4890022;29;20081;-60
2023/04/06 12:22:18;;;;;;;1.70;1.42;;;4.80;99.90;;;;;;4892446;29;20140;-62
2023/04/06 12:24:45;;;;;;;5.50;2.22;;;4.70;99.90;;;;;;4890858;29;20071;-60
2023/04/06 12:27:12;;;;;;;5.53;1.50;;;4.50;99.90;;;;;;4889260;29;20069;-59
2023/04/06 12:29:39;;;;;;;6.85;1.88;;;4.50;99.90;;;;;;4888631;29;20052;-61
2023/04/06 12:32:06;;;;;;;3.42;1.73;;;4.60;99.90;;;;;;4888561;29;20045;-61
2023/04/06 12:34:33;;;;;;;6.45;2.83;;;4.60;99.90;;;;;;4890276;29;20175;-63
2023/04/06 12:37:00;;;;;;;3.28;1.90;;;4.60;99.90;;;;;;4888736;29;20139;-65
2023/04/06 12:39:30;;;;;;;3.17;1.70;;;4.60;99.90;;;;;;4891001;29;20471;-61
2023/04/06 12:41:57;;;;;;;7.78;1.77;;;4.60;99.90;;;;;;4888030;29;20075;-61
2023/04/06 12:44:23;;;;;;;21.50;2.63;;;4.60;99.90;;;;;;4886394;29;20538;-62
2023/04/06 12:46:52;;;;;;;4.82;2.22;;;4.60;99.90;;;;;;4890163;29;20056;-65
2023/04/06 12:49:20;;;;;;;4.70;2.45;;;4.70;99.90;;;;;;4887819;29;20088;-62
2023/04/06 12:51:47;;;;;;;12.00;2.63;;;4.80;99.90;;;;;;4887668;29;20052;-63
2023/04/06 12:54:14;;;;;;;9.55;4.15;;;4.70;99.90;;;;;;4890036;29;20451;-62
2023/04/06 12:56:41;;;;;;;16.08;4.97;;;4.90;99.90;;;;;;4888536;29;20056;-61
2023/04/06 12:59:08;;;;;;;11.20;2.92;;;5.00;99.90;;;;;;4890048;29;20779;-62
2023/04/06 13:01:35;;;;;;;7.60;2.83;;;5.00;99.90;;;;;;4888134;29;20109;-62